Time;durP1;ratioP1;P1;durP2;ratioP2;P2;SDS_P1;SDS_P2;PMS_P1;PMS_P2;Temp;Humidity;BMP_temperature;BMP_pressure;BME280_temperature;BME280_humidity;BME280_pressure;Samples;Min_cycle;Max_cycle;Signal;HPM_P1;HPM_P2
2023/01/11 00:00:42;;;;;;;1.65;0.88;;;;;;;10.12;100.00;100642.53;5052719;27;96797;-30
2023/01/11 00:03:07;;;;;;;1.92;1.02;;;;;;;10.13;100.00;100657.81;5050668;27;101111;-29
2023/01/11 00:05:40;;;;;;;2.25;0.93;;;;;;;10.12;100.00;100642.53;5052238;27;98165;-29
2023/01/11 00:08:06;;;;;;;1.63;1.02;;;;;;;10.16;100.00;100645.94;5050300;27;96929;-29
2023/01/11 00:10:32;;;;;;;1.65;0.85;;;;;;;10.17;100.00;100643.09;5050847;27;97330;-30
2023/01/11 00:12:58;;;;;;;2.58;0.90;;;;;;;10.17;100.00;100643.09;5050463;27;101543;-28
2023/01/11 00:15:23;;;;;;;2.33;1.35;;;;;;;10.18;100.00;100644.00;5050530;27;100914;-29
2023/01/11 00:17:49;;;;;;;1.60;1.00;;;;;;;10.18;100.00;100638.59;5052163;27;97162;-29
2023/01/11 00:20:14;;;;;;;3.03;1.05;;;;;;;10.19;100.00;100635.75;5052415;27;96890;-29
2023/01/11 00:22:39;;;;;;;4.63;1.27;;;;;;;10.20;100.00;100642.03;5051766;27;97536;-31
2023/01/11 00:25:05;;;;;;;1.50;0.80;;;;;;;10.21;100.00;100641.94;5052306;27;99204;-29
2023/01/11 00:27:30;;;;;;;1.92;0.90;;;;;;;10.23;100.00;100644.56;5051193;27;96779;-30
2023/01/11 00:29:55;;;;;;;1.13;0.60;;;;;;;10.24;100.00;100635.47;5055223;27;98468;-29
2023/01/11 00:32:21;;;;;;;1.80;0.73;;;;;;;10.22;100.00;100640.13;5054987;27;98093;-31
2023/01/11 00:34:46;;;;;;;3.85;1.10;;;;;;;10.25;100.00;100644.47;5055050;27;108975;-29
2023/01/11 00:37:11;;;;;;;4.10;1.30;;;;;;;10.26;100.00;100648.91;5055426;27;96637;-29
2023/01/11 00:39:36;;;;;;;1.75;0.85;;;;;;;10.27;100.00;100642.53;5055228;27;102927;-29
2023/01/11 00:50:13;;;;;;;1.05;0.93;;;;;;;10.31;100.00;100638.69;5055925;27;96448;-30
2023/01/11 00:52:39;;;;;;;1.50;0.82;;;;;;;10.33;100.00;100626.81;5055030;27;99127;-29
2023/01/11 00:55:05;;;;;;;4.63;1.40;;;;;;;10.34;100.00;100633.06;5054969;27;104074;-29
2023/01/11 00:57:30;;;;;;;1.27;0.93;;;;;;;10.34;100.00;100639.34;5054095;27;96553;-28
2023/01/11 00:59:55;;;;;;;2.50;1.23;;;;;;;10.35;100.00;100630.28;5054548;27;104471;-30
2023/01/11 01:02:21;;;;;;;3.67;1.05;;;;;;;10.35;100.00;100633.00;5054850;27;99447;-30
2023/01/11 01:04:46;;;;;;;3.75;0.75;;;;;;;10.35;100.00;100632.13;5054816;27;99112;-29
2023/01/11 01:07:12;;;;;;;1.80;0.88;;;;;;;10.36;100.00;100631.16;5054854;27;96652;-29
2023/01/11 01:09:37;;;;;;;1.25;0.80;;;;;;;10.35;100.00;100632.13;5055181;27;96820;-29
2023/01/11 01:12:03;;;;;;;0.93;0.70;;;;;;;10.36;100.00;100633.84;5054986;27;98102;-28
2023/01/11 01:14:29;;;;;;;0.98;0.57;;;;;;;10.35;100.00;100642.97;5053570;27;101236;-28
2023/01/11 01:17:06;;;;;;;0.95;0.70;;;;;;;10.38;100.00;100648.16;5053405;27;96779;-29
2023/01/11 01:19:33;;;;;;;1.55;1.00;;;;;;;10.37;100.00;100644.59;5054760;27;96747;-29
2023/01/11 01:21:59;;;;;;;1.15;0.90;;;;;;;10.36;100.00;100639.28;5052376;27;104040;-29
2023/01/11 01:24:27;;;;;;;1.17;0.95;;;;;;;10.35;100.00;100648.38;5054689;27;97835;-29
2023/01/11 01:26:53;;;;;;;1.85;1.13;;;;;;;10.37;100.00;100650.00;5052904;27;96914;-28
2023/01/11 01:29:18;;;;;;;0.88;0.73;;;;;;;10.38;100.00;100659.00;5053233;27;96749;-29
2023/01/11 01:31:44;;;;;;;1.63;1.02;;;;;;;10.36;100.00;100661.78;5054604;27;97541;-29
2023/01/11 01:34:11;;;;;;;3.80;0.82;;;;;;;10.39;100.00;100655.31;5054445;27;97778;-29
2023/01/11 01:36:36;;;;;;;1.17;0.70;;;;;;;10.37;100.00;100657.28;5054734;27;96565;-29
2023/01/11 01:39:03;;;;;;;1.15;0.88;;;;;;;10.36;100.00;100656.38;5054860;27;96808;-29
2023/01/11 01:41:29;;;;;;;2.22;0.90;;;;;;;10.35;100.00;100653.78;5053548;27;97756;-29
2023/01/11 01:43:56;;;;;;;1.58;1.20;;;;;;;10.35;100.00;100661.91;5054216;27;98456;-29
2023/01/11 01:46:26;;;;;;;1.50;1.10;;;;;;;10.36;100.00;100669.91;5052313;27;97429;-29
2023/01/11 01:49:00;;;;;;;1.23;0.90;;;;;;;10.36;100.00;100677.16;5054179;27;96818;-30
2023/01/11 01:51:50;;;;;;;2.55;1.30;;;;;;;10.37;100.00;100676.22;5052658;27;100763;-29
2023/01/11 01:54:26;;;;;;;2.47;1.10;;;;;;;10.34;100.00;100681.81;5052410;27;101173;-30
2023/01/11 01:56:59;;;;;;;1.17;0.80;;;;;;;10.37;100.00;100684.34;5054277;27;96569;-29
2023/01/11 01:59:27;;;;;;;3.72;1.00;;;;;;;10.37;100.00;100684.34;5052895;27;96777;-29
2023/01/11 02:01:53;;;;;;;2.10;1.20;;;;;;;10.35;100.00;100683.56;5052454;27;100835;-29
2023/01/11 02:04:21;;;;;;;2.58;1.13;;;;;;;10.38;100.00;100695.06;5054337;27;96621;-29
2023/01/11 02:06:47;;;;;;;1.73;0.95;;;;;;;10.36;100.00;100672.63;5054056;27;96532;-29
2023/01/11 02:09:24;;;;;;;1.83;1.00;;;;;;;10.40;100.00;100687.72;5052730;27;96859;-29
2023/01/11 02:11:50;;;;;;;1.02;0.90;;;;;;;10.43;100.00;100691.19;5053586;27;97578;-29
2023/01/11 02:14:18;;;;;;;1.23;1.00;;;;;;;10.45;100.00;100694.69;5053896;27;97397;-31
2023/01/11 02:16:43;;;;;;;1.33;0.90;;;;;;;10.45;100.00;100691.97;5052428;27;96624;-29
2023/01/11 02:19:20;;;;;;;2.55;1.08;;;;;;;10.45;100.00;100678.44;5054316;27;96819;-30
2023/01/11 02:22:06;;;;;;;3.03;1.08;;;;;;;10.45;100.00;100686.56;5052205;27;100908;-28
2023/01/11 02:24:47;;;;;;;2.92;0.95;;;;;;;10.48;100.00;100683.66;5052310;27;100897;-29
2023/01/11 02:27:40;;;;;;;1.95;0.77;;;;;;;10.49;100.00;100688.97;5053486;27;96924;-29
2023/01/11 02:30:13;;;;;;;1.77;1.10;;;;;;;10.49;100.00;100685.41;5054130;27;96931;-29
2023/01/11 02:33:24;;;;;;;1.27;0.95;;;;;;;10.51;100.00;100687.03;5052146;27;101278;-29
2023/01/11 02:35:55;;;;;;;1.45;1.15;;;;;;;10.52;100.00;100696.91;5049642;27;97880;-29
2023/01/11 02:38:20;;;;;;;1.85;1.15;;;;;;;10.53;100.00;100704.03;5052790;27;96549;-28
2023/01/11 02:40:55;;;;;;;0.80;0.55;;;;;;;10.51;100.00;100687.03;5053526;27;97036;-29
2023/01/11 02:46:40;;;;;;;2.92;1.17;;;;;;;10.54;100.00;100683.28;5053478;27;96925;-29
2023/01/11 02:49:34;;;;;;;1.13;0.75;;;;;;;10.56;100.00;100676.78;5053495;27;96726;-30
2023/01/11 02:52:19;;;;;;;1.10;0.90;;;;;;;10.56;100.00;100692.16;5052885;27;96726;-29
2023/01/11 02:54:52;;;;;;;1.20;0.90;;;;;;;10.55;100.00;100693.13;5053430;27;98049;-29
2023/01/11 02:57:19;;;;;;;1.15;0.85;;;;;;;10.53;100.00;100703.19;5053520;27;97485;-30
2023/01/11 02:59:48;;;;;;;1.92;1.23;;;;;;;10.55;100.00;100706.66;5051775;27;96610;-29
2023/01/11 03:02:15;;;;;;;0.68;0.60;;;;;;;10.57;100.00;100697.47;5051751;27;96907;-29
2023/01/11 03:04:41;;;;;;;0.73;0.73;;;;;;;10.58;100.00;100698.34;5051187;27;99074;-29
2023/01/11 03:07:39;;;;;;;1.92;1.02;;;;;;;10.60;100.00;100694.56;5051291;27;98947;-29
2023/01/11 03:10:28;;;;;;;5.03;0.95;;;;;;;10.62;100.00;100717.00;5053017;27;96593;-29
2023/01/11 03:13:16;;;;;;;1.60;1.05;;;;;;;10.63;100.00;100720.59;5053332;27;96467;-30
2023/01/11 03:15:52;;;;;;;1.27;0.98;;;;;;;10.60;100.00;100718.94;5053030;27;98064;-29
2023/01/11 03:18:27;;;;;;;3.58;1.00;;;;;;;10.59;100.00;100719.91;5051248;27;100831;-29
2023/01/11 03:21:21;;;;;;;0.90;0.70;;;;;;;10.59;100.00;100711.78;5053071;27;96647;-29
2023/01/11 03:23:59;;;;;;;1.20;0.88;;;;;;;10.61;100.00;100717.97;5051797;27;96773;-29
2023/01/11 03:26:45;;;;;;;1.40;1.10;;;;;;;10.63;100.00;100721.47;5052406;27;97963;-30
2023/01/11 03:29:23;;;;;;;1.13;0.68;;;;;;;10.62;100.00;100716.13;5052531;27;99170;-30
2023/01/11 03:32:07;;;;;;;0.80;0.70;;;;;;;10.66;100.00;100724.94;5050941;27;96941;-29
2023/01/11 03:34:56;;;;;;;1.35;1.02;;;;;;;10.65;100.00;100724.06;5052504;27;96750;-29
2023/01/11 03:37:33;;;;;;;0.82;0.65;;;;;;;10.68;100.00;100733.81;5052315;27;99787;-29
2023/01/11 03:40:02;;;;;;;3.80;1.05;;;;;;;10.69;100.00;100731.03;5051116;27;100739;-30
2023/01/11 03:42:31;;;;;;;0.63;0.55;;;;;;;10.69;100.00;100727.44;5052489;27;96688;-29
2023/01/11 03:44:59;;;;;;;1.65;0.75;;;;;;;10.68;100.00;100729.31;5051015;27;97823;-30
2023/01/11 03:47:29;;;;;;;1.35;0.63;;;;;;;10.71;100.00;100741.78;5050597;27;100796;-29
2023/01/11 03:50:00;;;;;;;0.82;0.50;;;;;;;10.66;100.00;100725.81;5052685;27;99581;-29
2023/01/11 03:52:32;;;;;;;0.70;0.37;;;;;;;10.68;100.00;100733.81;5051276;27;96632;-30
2023/01/11 03:54:59;;;;;;;3.13;0.90;;;;;;;10.69;100.00;100739.16;5051085;27;96791;-29
2023/01/11 03:57:31;;;;;;;1.25;0.40;;;;;;;10.70;100.00;100748.16;5050376;27;98995;-29
2023/01/11 03:59:56;;;;;;;2.92;0.60;;;;;;;10.69;100.00;100752.69;5050730;27;101255;-29
2023/01/11 04:02:32;;;;;;;3.83;0.80;;;;;;;10.71;100.00;100761.59;5052480;27;96625;-30
2023/01/11 04:04:57;;;;;;;6.07;0.93;;;;;;;10.70;100.00;100762.59;5054520;27;96853;-29
2023/01/11 04:07:23;;;;;;;7.68;0.90;;;;;;;10.71;100.00;100774.28;5055893;27;97486;-29
2023/01/11 04:09:48;;;;;;;3.50;1.10;;;;;;;10.68;100.00;100777.16;5055594;27;99111;-29
2023/01/11 04:12:13;;;;;;;1.42;0.47;;;;;;;10.68;100.00;100777.16;5056084;27;96534;-29
2023/01/11 04:14:38;;;;;;;8.88;0.93;;;;;;;10.66;100.00;100782.69;5056331;27;96786;-29
2023/01/11 04:17:04;;;;;;;2.67;0.82;;;;;;;10.69;100.00;100781.63;5055199;27;111481;-29
2023/01/11 04:19:29;;;;;;;3.08;0.85;;;;;;;10.66;100.00;100769.16;5055538;27;98882;-30
2023/01/11 04:21:55;;;;;;;2.88;0.70;;;;;;;10.68;100.00;100766.34;5054792;27;96918;-29
2023/01/11 04:24:20;;;;;;;1.48;0.60;;;;;;;10.65;100.00;100763.81;5055706;27;96848;-29
2023/01/11 04:26:46;;;;;;;7.88;1.00;;;;;;;10.68;100.00;100777.16;5054661;27;99029;-32
2023/01/11 04:29:11;;;;;;;7.85;0.80;;;;;;;10.65;100.00;100774.66;5055460;27;97443;-29
2023/01/11 04:31:36;;;;;;;5.50;0.88;;;;;;;10.61;100.00;100801.94;5055792;27;96671;-29
2023/01/11 04:34:02;;;;;;;3.63;0.85;;;;;;;10.61;100.00;100795.66;5053944;27;100828;-29
2023/01/11 04:36:29;;;;;;;2.60;0.90;;;;;;;10.56;100.00;100795.94;5055109;27;99401;-30
2023/01/11 04:38:55;;;;;;;2.80;0.85;;;;;;;10.55;100.00;100785.19;5054188;27;100932;-30
2023/01/11 04:44:04;;;;;;;3.85;0.65;;;;;;;10.55;100.00;100787.91;5055292;27;96656;-31
2023/01/11 04:46:29;;;;;;;2.75;0.65;;;;;;;10.52;100.00;100790.81;5054186;27;111530;-29
2023/01/11 04:48:55;;;;;;;1.17;0.57;;;;;;;10.53;100.00;100801.53;5055055;27;102661;-32
2023/01/11 04:51:20;;;;;;;1.23;0.57;;;;;;;10.49;100.00;100800.00;5053922;27;96762;-31
2023/01/11 04:53:48;;;;;;;4.68;0.85;;;;;;;10.46;100.00;100802.03;5054894;27;101122;-29
2023/01/11 04:56:13;;;;;;;2.63;0.60;;;;;;;10.40;100.00;100789.75;5053480;27;98779;-29
2023/01/11 04:58:39;;;;;;;4.80;0.65;;;;;;;10.42;100.00;100809.47;5053625;27;100956;-28
2023/01/11 05:01:14;;;;;;;4.28;0.93;;;;;;;10.34;100.00;100795.53;5055218;27;96734;-30
2023/01/11 05:03:40;;;;;;;3.70;0.90;;;;;;;10.31;100.00;100791.16;5054407;27;96835;-29
2023/01/11 05:06:06;;;;;;;2.97;1.17;;;;;;;10.32;100.00;100803.75;5054637;27;99323;-29
2023/01/11 05:08:32;;;;;;;6.30;1.15;;;;;;;10.27;100.00;100810.38;5054935;27;97750;-29
2023/01/11 05:10:59;;;;;;;2.83;0.88;;;;;;;10.27;100.00;100821.19;5053167;27;97240;-29
2023/01/11 05:13:41;;;;;;;1.90;0.93;;;;;;;10.23;100.00;100825.06;5054849;27;96825;-29
2023/01/11 05:16:16;;;;;;;3.83;1.20;;;;;;;10.25;100.00;100833.94;5052032;27;101444;-29
2023/01/11 05:18:45;;;;;;;3.78;1.40;;;;;;;10.20;100.00;100837.81;5053329;27;100733;-29
2023/01/11 05:21:12;;;;;;;1.30;1.05;;;;;;;10.20;100.00;100834.22;5053185;27;96794;-29
2023/01/11 05:23:39;;;;;;;2.92;1.42;;;;;;;10.17;100.00;100838.00;5053357;27;97046;-29
2023/01/11 05:26:07;;;;;;;4.20;1.85;;;;;;;10.14;100.00;100840.88;5053104;27;100998;-29
2023/01/11 05:28:33;;;;;;;2.85;1.77;;;;;;;10.15;100.00;100850.78;5053377;27;100535;-29
2023/01/11 05:30:59;;;;;;;6.22;1.83;;;;;;;10.13;100.00;100850.00;5053368;27;96505;-30
2023/01/11 05:33:24;;;;;;;11.38;2.08;;;;;;;10.12;100.00;100840.09;5054811;27;96758;-29
2023/01/11 05:35:51;;;;;;;6.88;2.22;;;;;;;10.09;100.00;100843.00;5053727;27;97483;-29
2023/01/11 05:38:16;;;;;;;6.07;2.13;;;;;;;10.05;100.00;100841.44;5052981;27;100776;-29
2023/01/11 05:40:41;;;;;;;6.57;1.95;;;;;;;10.05;100.00;100846.84;5054374;27;96511;-29
2023/01/11 05:43:07;;;;;;;3.22;1.42;;;;;;;10.03;100.00;100845.19;5053944;27;100022;-29
2023/01/11 05:45:32;;;;;;;4.05;1.15;;;;;;;10.02;100.00;100847.03;5054302;27;97912;-28
2023/01/11 05:47:58;;;;;;;6.28;1.42;;;;;;;9.99;100.00;100849.94;5054186;27;99279;-29
2023/01/11 05:50:24;;;;;;;5.05;1.40;;;;;;;9.97;100.00;100850.00;5054122;27;96848;-28
2023/01/11 05:52:49;;;;;;;4.75;1.45;;;;;;;9.95;100.00;100842.94;5053142;27;96891;-29
2023/01/11 05:55:15;;;;;;;3.55;1.23;;;;;;;9.96;100.00;100852.81;5054298;27;97416;-29
2023/01/11 05:57:42;;;;;;;5.47;1.10;;;;;;;9.93;100.00;100845.75;5054116;27;97943;-29
2023/01/11 06:00:08;;;;;;;1.52;1.00;;;;;;;9.91;99.79;100841.38;5052247;27;97382;-29
2023/01/11 06:02:34;;;;;;;2.67;0.93;;;;;;;9.90;100.00;100862.16;5052666;27;97931;-29
2023/01/11 06:05:00;;;;;;;1.73;0.77;;;;;;;9.91;100.00;100876.56;5053916;27;98852;-28
2023/01/11 06:07:25;;;;;;;5.20;1.10;;;;;;;9.87;99.96;100883.13;5054017;27;97070;-29
2023/01/11 06:09:51;;;;;;;4.78;1.25;;;;;;;9.87;100.00;100891.25;5054296;27;96409;-29
2023/01/11 06:12:16;;;;;;;5.63;1.17;;;;;;;9.82;100.00;100888.81;5053970;27;96821;-30
2023/01/11 06:14:41;;;;;;;7.53;1.27;;;;;;;9.79;100.00;100891.66;5053924;27;97906;-29
2023/01/11 06:17:07;;;;;;;3.60;0.50;;;;;;;9.74;100.00;100888.34;5054174;27;97772;-29
2023/01/11 06:19:32;;;;;;;3.70;0.43;;;;;;;9.74;100.00;100896.47;5053754;27;96694;-29
2023/01/11 06:21:57;;;;;;;1.63;0.75;;;;;;;9.76;100.00;100908.94;5053494;27;99553;-29
2023/01/11 06:24:23;;;;;;;1.33;0.63;;;;;;;9.73;100.00;100917.25;5052931;27;99435;-29
2023/01/11 06:26:51;;;;;;;7.03;1.20;;;;;;;9.72;100.00;100910.06;5052615;27;99259;-29
2023/01/11 06:29:17;;;;;;;6.57;1.15;;;;;;;9.70;99.94;100909.31;5053954;27;96533;-29
2023/01/11 06:31:42;;;;;;;3.28;0.73;;;;;;;9.69;100.00;100912.97;5053838;27;96763;-29
2023/01/11 06:34:08;;;;;;;3.88;0.57;;;;;;;9.68;99.70;100911.22;5053397;27;101506;-29
2023/01/11 06:36:33;;;;;;;6.13;0.70;;;;;;;9.67;99.48;100925.69;5053526;27;97864;-29
2023/01/11 06:38:58;;;;;;;0.98;0.40;;;;;;;9.62;99.41;100933.19;5053580;27;96548;-29
2023/01/11 06:41:24;;;;;;;2.60;0.77;;;;;;;9.61;99.56;100936.88;5054400;27;96780;-29
2023/01/11 06:43:50;;;;;;;1.27;0.40;;;;;;;9.61;99.16;100930.59;5053321;27;97842;-30
2023/01/11 06:46:16;;;;;;;4.25;0.95;;;;;;;9.62;99.61;100937.75;5051970;27;100811;-29
2023/01/11 06:48:42;;;;;;;6.47;0.85;;;;;;;9.59;99.27;100941.50;5052929;27;96639;-30
2023/01/11 06:51:10;;;;;;;6.55;1.05;;;;;;;9.58;99.02;100945.13;5052108;27;96841;-30
2023/01/11 06:53:36;;;;;;;3.30;0.70;;;;;;;9.55;99.30;100945.31;5053309;27;97362;-29
2023/01/11 06:56:01;;;;;;;5.82;1.23;;;;;;;9.53;99.33;100940.03;5053357;27;97927;-29
2023/01/11 06:58:27;;;;;;;2.25;0.73;;;;;;;9.51;98.82;100941.03;5053351;27;96618;-29
2023/01/11 07:00:55;;;;;;;4.03;0.80;;;;;;;9.49;98.74;100938.44;5053349;27;96758;-29
2023/01/11 07:03:22;;;;;;;3.88;0.47;;;;;;;9.47;98.85;100936.78;5051742;27;100899;-29
2023/01/11 07:05:48;;;;;;;4.43;0.75;;;;;;;9.47;98.79;100950.28;5051828;27;100852;-31
2023/01/11 07:08:14;;;;;;;1.42;0.38;;;;;;;9.46;99.05;100962.06;5053426;27;96655;-29
2023/01/11 07:10:39;;;;;;;8.98;0.95;;;;;;;9.42;98.88;100968.59;5053227;27;96734;-29
2023/01/11 07:13:05;;;;;;;2.10;0.50;;;;;;;9.39;98.85;100968.75;5052728;27;97331;-29
2023/01/11 07:15:30;;;;;;;4.75;0.73;;;;;;;9.36;98.75;100973.38;5052977;27;97779;-30
2023/01/11 07:17:58;;;;;;;0.85;0.60;;;;;;;9.34;99.11;100975.31;5052784;27;96586;-29
2023/01/11 07:20:24;;;;;;;3.47;0.70;;;;;;;9.29;98.79;100981.91;5051504;27;96833;-29
2023/01/11 07:22:50;;;;;;;1.67;0.55;;;;;;;9.28;98.92;100988.28;5051080;27;101168;-30
2023/01/11 07:25:16;;;;;;;5.82;1.05;;;;;;;9.27;98.85;100984.72;5051444;27;100683;-29
2023/01/11 07:27:42;;;;;;;2.65;0.68;;;;;;;9.25;98.44;100983.03;5050767;27;96766;-33
2023/01/11 07:30:08;;;;;;;4.72;1.38;;;;;;;9.24;98.74;100995.66;5053348;27;96758;-30
2023/01/11 07:32:34;;;;;;;2.05;1.08;;;;;;;9.20;98.56;100977.88;5051204;27;102088;-32
2023/01/11 07:35:00;;;;;;;1.73;0.85;;;;;;;9.24;98.98;100995.66;5052172;27;99160;-29
2023/01/11 07:37:25;;;;;;;2.53;0.98;;;;;;;9.19;98.57;100988.75;5051586;27;96496;-29
2023/01/11 07:39:51;;;;;;;4.35;0.80;;;;;;;9.17;98.59;100994.25;5051874;27;96747;-29
2023/01/11 07:45:00;;;;;;;4.95;1.23;;;;;;;9.16;98.60;101003.31;5052565;27;96916;-29
2023/01/11 07:47:26;;;;;;;4.43;1.20;;;;;;;9.13;98.58;101019.69;5052522;27;96704;-29
2023/01/11 07:49:51;;;;;;;2.13;0.47;;;;;;;9.09;98.64;101010.00;5052721;27;96853;-29
2023/01/11 07:52:17;;;;;;;4.82;0.85;;;;;;;9.07;98.65;101023.59;5052447;27;96749;-29
2023/01/11 07:54:43;;;;;;;0.90;0.35;;;;;;;9.04;98.45;101034.56;5051137;27;100706;-29
2023/01/11 07:57:08;;;;;;;2.67;0.85;;;;;;;9.02;98.67;101038.28;5052463;27;96626;-29
2023/01/11 07:59:33;;;;;;;5.68;0.88;;;;;;;9.02;98.68;101033.75;5052357;27;96809;-29
2023/01/11 08:01:59;;;;;;;1.67;0.52;;;;;;;9.06;98.68;101051.56;5051949;27;97849;-30
2023/01/11 08:04:24;;;;;;;3.25;1.05;;;;;;;9.03;98.56;101054.41;5052195;27;111199;-29
2023/01/11 08:06:50;;;;;;;7.15;1.20;;;;;;;9.04;98.76;101064.28;5052022;27;96539;-29
2023/01/11 08:09:15;;;;;;;4.88;1.25;;;;;;;9.00;98.26;101065.38;5052107;27;96814;-28
2023/01/11 08:14:40;;;;;;;2.22;0.85;;;;;;;9.01;98.22;101074.34;5052257;27;97017;-29
2023/01/11 08:17:07;;;;;;;4.90;1.27;;;;;;;8.99;98.07;101076.28;5052504;27;96480;-29
2023/01/11 08:19:33;;;;;;;2.13;0.60;;;;;;;8.98;97.42;101067.28;5050222;27;96861;-28
2023/01/11 08:21:58;;;;;;;3.88;1.23;;;;;;;8.99;97.75;101068.19;5049611;27;100924;-29
2023/01/11 08:24:24;;;;;;;4.05;0.70;;;;;;;8.94;98.19;101076.53;5051769;27;108595;-31
2023/01/11 08:26:50;;;;;;;5.53;0.45;;;;;;;8.97;97.77;101089.00;5049555;27;96865;-31
2023/01/11 08:29:15;;;;;;;6.93;1.02;;;;;;;8.92;97.54;101090.09;5049871;27;96843;-31
2023/01/11 08:31:47;;;;;;;7.03;0.68;;;;;;;8.93;97.73;101086.44;5051680;27;97378;-29
2023/01/11 08:34:13;;;;;;;1.85;0.57;;;;;;;8.96;97.71;101092.63;5049586;27;101379;-29
2023/01/11 08:36:38;;;;;;;2.47;0.75;;;;;;;8.95;97.59;101104.41;5051123;27;96728;-29
2023/01/11 08:39:04;;;;;;;1.48;0.55;;;;;;;8.91;97.12;101099.16;5051273;27;98215;-31
2023/01/11 08:41:31;;;;;;;7.65;1.02;;;;;;;8.91;97.21;101104.56;5050164;27;101158;-30
2023/01/11 08:43:57;;;;;;;4.53;0.50;;;;;;;8.90;97.34;101100.09;5050433;27;100955;-29
2023/01/11 08:46:23;;;;;;;2.42;0.90;;;;;;;8.93;97.26;101105.34;5050331;27;96736;-29
2023/01/11 08:48:49;;;;;;;0.95;0.70;;;;;;;8.94;97.29;101106.25;5051117;27;96783;-29
2023/01/11 08:51:15;;;;;;;6.07;0.80;;;;;;;8.94;96.80;101108.94;5054282;27;97944;-29
2023/01/11 08:53:40;;;;;;;6.50;1.08;;;;;;;8.96;96.98;101100.75;5052126;27;99006;-29
2023/01/11 08:56:06;;;;;;;3.35;1.15;;;;;;;8.93;96.66;101102.63;5055329;27;96673;-29
2023/01/11 08:58:32;;;;;;;1.83;0.63;;;;;;;8.94;96.10;101100.84;5053866;27;96882;-30
2023/01/11 09:01:01;;;;;;;2.92;0.93;;;;;;;8.97;96.42;101097.97;5053593;27;97383;-29
2023/01/11 09:03:27;;;;;;;4.28;0.60;;;;;;;9.02;96.47;101105.84;5054956;27;97848;-29
2023/01/11 09:05:55;;;;;;;7.93;0.73;;;;;;;9.03;95.95;101105.75;5055046;27;96642;-29
2023/01/11 09:08:22;;;;;;;4.35;0.60;;;;;;;9.09;95.89;101118.09;5055166;27;96735;-30
2023/01/11 09:10:47;;;;;;;4.00;1.08;;;;;;;9.08;95.83;101110.91;5053594;27;101035;-29
2023/01/11 09:13:13;;;;;;;3.88;0.77;;;;;;;9.11;96.03;101110.78;5054552;27;98757;-29
2023/01/11 09:15:38;;;;;;;4.82;0.77;;;;;;;9.12;95.64;101118.78;5054484;27;97097;-29
2023/01/11 09:18:04;;;;;;;4.20;0.70;;;;;;;9.17;96.05;101125.78;5055357;27;96803;-29
2023/01/11 09:20:29;;;;;;;4.25;1.30;;;;;;;9.18;96.01;101132.97;5054716;27;97841;-29
2023/01/11 09:22:54;;;;;;;2.05;0.50;;;;;;;9.18;96.07;101125.72;5054040;27;97865;-28
2023/01/11 09:25:20;;;;;;;4.05;0.75;;;;;;;9.20;96.02;101131.94;5055012;27;96535;-29
2023/01/11 09:27:50;;;;;;;1.90;0.60;;;;;;;9.19;95.70;101127.47;5054249;27;96819;-29
2023/01/11 09:30:18;;;;;;;4.80;1.50;;;;;;;9.23;96.19;101136.31;5054464;27;97462;-29
2023/01/11 09:32:45;;;;;;;7.18;0.65;;;;;;;9.25;96.25;101137.09;5053576;27;101336;-29
2023/01/11 09:35:10;;;;;;;5.72;0.60;;;;;;;9.26;96.06;101126.19;5053126;27;96501;-29
2023/01/11 09:37:40;;;;;;;2.05;0.60;;;;;;;9.25;95.62;101126.28;5055012;27;96708;-29
2023/01/11 09:40:10;;;;;;;3.85;0.65;;;;;;;9.32;95.61;101133.13;5052551;27;100764;-29
2023/01/11 09:42:39;;;;;;;6.22;0.70;;;;;;;9.38;95.36;101137.34;5052725;27;100353;-29
2023/01/11 09:45:21;;;;;;;4.72;0.95;;;;;;;9.43;95.34;101141.53;5052918;27;96659;-29
2023/01/11 09:48:02;;;;;;;4.10;0.68;;;;;;;9.49;95.23;101140.38;5054052;27;96750;-29
2023/01/11 09:50:49;;;;;;;3.28;1.13;;;;;;;9.59;94.91;101143.47;5053018;27;100928;-29
2023/01/11 09:53:26;;;;;;;5.88;0.63;;;;;;;9.68;94.10;101137.56;5053714;27;99461;-31
2023/01/11 09:55:56;;;;;;;3.75;0.73;;;;;;;9.80;94.16;101142.31;5051603;27;96848;-30
2023/01/11 09:58:52;;;;;;;1.98;0.60;;;;;;;9.89;92.65;101144.53;5054296;27;96799;-29
2023/01/11 10:01:35;;;;;;;3.72;0.43;;;;;;;10.00;92.81;101149.34;5052880;27;99211;-28
2023/01/11 10:04:16;;;;;;;1.80;0.73;;;;;;;10.08;92.27;101162.44;5051847;27;100889;-28
2023/01/11 10:06:48;;;;;;;2.22;0.90;;;;;;;10.20;91.58;101156.34;5052938;27;96755;-29
2023/01/11 10:09:23;;;;;;;5.07;0.68;;;;;;;10.26;90.91;101166.00;5052796;27;97037;-29
2023/01/11 10:12:13;;;;;;;3.90;0.80;;;;;;;10.32;90.81;101162.97;5053742;27;99029;-29
2023/01/11 10:14:49;;;;;;;0.60;0.35;;;;;;;10.46;91.60;101182.03;5052438;27;101159;-29
2023/01/11 10:17:40;;;;;;;3.45;0.82;;;;;;;10.51;90.66;101176.34;5052060;27;96919;-29
2023/01/11 10:20:11;;;;;;;1.95;0.45;;;;;;;10.57;89.24;101185.00;5051595;27;96854;-29
2023/01/11 10:22:42;;;;;;;8.00;1.08;;;;;;;10.60;89.71;101181.25;5053583;27;98027;-29
2023/01/11 10:25:20;;;;;;;5.00;0.43;;;;;;;10.68;89.06;101178.09;5052761;27;100964;-29
2023/01/11 10:28:12;;;;;;;2.38;0.85;;;;;;;10.85;88.44;101186.16;5051752;27;97234;-29
2023/01/11 10:34:11;;;;;;;9.75;1.50;;;;;;;10.85;88.00;101191.59;5052618;27;96472;-29
2023/01/11 10:42:46;;;;;;;4.47;0.52;;;;;;;11.16;86.03;101182.56;5053392;27;96680;-29
2023/01/11 10:45:17;;;;;;;2.05;0.63;;;;;;;11.27;85.56;101163.81;5051516;27;101270;-34
2023/01/11 10:48:11;;;;;;;3.87;0.60;;;;;;;11.45;85.61;101164.53;5051434;27;99094;-29
2023/01/11 10:50:53;;;;;;;3.00;0.38;;;;;;;11.55;82.70;101164.84;5052942;27;97670;-29
2023/01/11 10:53:37;;;;;;;11.55;1.40;;;;;;;11.46;83.69;101171.72;5053565;27;96716;-32
2023/01/11 10:56:25;;;;;;;1.30;0.43;;;;;;;11.56;83.29;101177.47;5051265;27;100946;-31
2023/01/11 10:59:04;;;;;;;2.50;0.80;;;;;;;11.61;83.06;101171.78;5052749;27;99101;-30
2023/01/11 11:01:45;;;;;;;4.15;0.65;;;;;;;11.64;81.75;101158.88;5051149;27;96934;-30
2023/01/11 11:04:21;;;;;;;3.20;0.55;;;;;;;11.75;82.57;101169.09;5051654;27;97080;-30
2023/01/11 11:07:11;;;;;;;5.03;0.88;;;;;;;11.46;81.85;101152.75;5051040;27;101426;-30
2023/01/11 11:10:04;;;;;;;2.58;0.40;;;;;;;11.57;83.63;101170.19;5051669;27;100887;-30
2023/01/11 11:12:38;;;;;;;13.77;1.10;;;;;;;11.40;82.90;101155.81;5053411;27;96583;-30
2023/01/11 11:15:09;;;;;;;3.85;0.45;;;;;;;11.25;83.69;101167.59;5041131;27;96675;-30
2023/01/11 11:17:38;;;;;;;3.30;0.73;;;;;;;11.35;83.07;101167.91;5052149;27;97225;-30
2023/01/11 11:20:19;;;;;;;9.40;1.48;;;;;;;11.29;83.40;101177.28;5050943;27;100823;-31
2023/01/11 11:22:48;;;;;;;2.28;0.40;;;;;;;11.19;83.29;101171.50;5052890;27;96629;-30
2023/01/11 11:25:26;;;;;;;7.15;0.82;;;;;;;11.14;84.50;101172.75;5051356;27;96822;-32
2023/01/11 11:27:57;;;;;;;5.40;0.98;;;;;;;11.08;83.48;101165.84;5051647;27;97941;-30
2023/01/11 11:30:37;;;;;;;7.05;1.55;;;;;;;10.92;83.23;101146.91;5051933;27;97455;-30
2023/01/11 11:33:32;;;;;;;8.88;1.35;;;;;;;10.76;83.17;101170.44;5041236;27;96743;-30
2023/01/11 11:36:10;;;;;;;5.22;0.75;;;;;;;10.80;84.35;101174.72;5045102;27;97969;-29
2023/01/11 11:38:40;;;;;;;1.15;0.35;;;;;;;10.74;83.29;101175.06;5052734;27;98029;-31
2023/01/11 11:41:07;;;;;;;13.85;1.10;;;;;;;10.66;83.75;101169.22;5051096;27;97332;-31
2023/01/11 11:43:35;;;;;;;4.15;0.88;;;;;;;10.60;81.84;101159.59;5052219;27;96766;-31
2023/01/11 11:46:12;;;;;;;6.03;0.93;;;;;;;10.61;81.56;101167.63;5052745;27;96854;-30
2023/01/11 11:48:38;;;;;;;3.25;0.93;;;;;;;10.68;81.33;101164.56;5051238;27;97608;-30
2023/01/11 11:51:06;;;;;;;5.93;0.88;;;;;;;10.63;80.95;101167.56;5050926;27;100706;-30
2023/01/11 11:53:38;;;;;;;8.55;0.88;;;;;;;10.75;81.78;101172.28;5050507;27;97142;-30
2023/01/11 11:56:22;;;;;;;3.65;0.85;;;;;;;10.70;80.92;101165.34;5051340;27;96974;-30
2023/01/11 11:58:47;;;;;;;1.83;0.82;;;;;;;10.60;80.91;101175.84;5050930;27;99016;-31
2023/01/11 12:01:24;;;;;;;6.95;1.05;;;;;;;10.51;81.56;101179.97;5052502;27;97695;-29
2023/01/11 12:03:52;;;;;;;4.93;0.90;;;;;;;10.40;81.45;101175.13;5052636;27;96703;-30